createdAt,value
2022-10-19T00:01:15.152Z,98228.22
2022-10-19T00:03:43.682Z,98227.66
2022-10-19T00:06:12.666Z,98217.22
2022-10-19T00:08:41.032Z,98223.84
2022-10-19T00:11:09.456Z,98215.88
2022-10-19T00:13:39.327Z,98206.41
2022-10-19T00:16:11.745Z,98200.91
2022-10-19T00:18:39.845Z,98189.91
2022-10-19T00:21:09.118Z,98170.84
2022-10-19T00:23:37.643Z,98184.59
2022-10-19T00:26:06.302Z,98180.31
2022-10-19T00:28:34.747Z,98183.41
2022-10-19T00:33:53.032Z,98179.47
2022-10-19T00:39:10.780Z,98160.59
2022-10-19T00:41:39.183Z,98162.53
2022-10-19T00:44:08.491Z,98137.16
2022-10-19T00:46:38.386Z,98135.00
2022-10-19T00:49:10.890Z,98139.72
2022-10-19T00:51:41.798Z,98140.81
2022-10-19T00:54:10.815Z,98138.53
2022-10-19T00:56:41.299Z,98144.84
2022-10-19T00:59:10.860Z,98163.22
2022-10-19T01:01:40.822Z,98163.97
2022-10-19T01:04:10.359Z,98164.75
2022-10-19T01:06:43.551Z,98166.44
2022-10-19T01:09:11.847Z,98159.75
2022-10-19T01:11:44.326Z,98153.06
2022-10-19T01:14:23.049Z,98154.06
2022-10-19T01:16:55.289Z,98149.00
2022-10-19T01:19:46.958Z,98143.09
2022-10-19T01:22:23.319Z,98138.78
2022-10-19T01:24:59.141Z,98150.69
2022-10-19T01:27:46.544Z,98153.34
2022-10-19T01:30:17.798Z,98157.28
2022-10-19T01:32:53.749Z,98152.19
2022-10-19T01:35:26.254Z,98144.09
2022-10-19T01:37:59.650Z,98135.88
2022-10-19T01:40:30.237Z,98126.03
2022-10-19T01:43:02.202Z,98121.78
2022-10-19T01:45:35.273Z,98122.41
2022-10-19T01:48:04.917Z,98112.06
2022-10-19T01:50:35.668Z,98108.13
2022-10-19T01:53:05.624Z,98095.34
2022-10-19T01:55:35.026Z,98080.03
2022-10-19T01:58:08.263Z,98078.44
2022-10-19T02:00:40.721Z,98080.59
2022-10-19T02:03:10.639Z,98081.97
2022-10-19T02:05:40.678Z,98082.38
2022-10-19T02:08:12.188Z,98089.84
2022-10-19T02:10:41.449Z,98077.69
2022-10-19T02:13:09.473Z,98081.22
2022-10-19T02:16:00.932Z,98079.03
2022-10-19T02:18:32.837Z,98075.31
2022-10-19T02:21:03.271Z,98078.78
2022-10-19T02:23:31.280Z,98061.59
2022-10-19T02:26:00.004Z,98063.72
2022-10-19T02:28:29.320Z,98059.59
2022-10-19T02:30:59.640Z,98060.16
2022-10-19T02:33:28.191Z,98050.06
2022-10-19T02:35:56.700Z,98049.47
2022-10-19T02:38:31.686Z,98053.69
2022-10-19T02:41:05.923Z,98045.75
2022-10-19T02:43:35.551Z,98040.63
2022-10-19T02:46:07.461Z,98026.78
2022-10-19T02:48:37.823Z,98031.22
2022-10-19T02:51:06.112Z,98031.72
2022-10-19T02:53:34.209Z,98028.47
2022-10-19T02:56:02.200Z,98029.44
2022-10-19T02:58:30.326Z,98020.91
2022-10-19T03:00:58.343Z,98028.28
2022-10-19T03:03:28.152Z,98020.84
2022-10-19T03:05:56.804Z,98022.41
2022-10-19T03:08:24.859Z,98026.34
2022-10-19T03:10:53.042Z,98025.75
2022-10-19T03:13:21.211Z,98014.84
2022-10-19T03:15:49.664Z,98012.69
2022-10-19T03:18:17.762Z,98012.09
2022-10-19T03:20:47.364Z,98015.50
2022-10-19T03:23:15.371Z,98015.72
2022-10-19T03:25:43.466Z,98015.16
2022-10-19T03:28:11.492Z,98003.41
2022-10-19T03:30:39.493Z,98003.13
2022-10-19T03:33:07.404Z,98004.81
2022-10-19T03:35:35.319Z,98006.09
2022-10-19T03:38:05.047Z,98003.91
2022-10-19T03:40:33.229Z,97999.38
2022-10-19T03:43:01.202Z,97997.63
2022-10-19T03:45:29.416Z,97993.19
2022-10-19T03:47:57.948Z,97982.97
2022-10-19T03:50:26.156Z,97975.41
2022-10-19T03:52:54.442Z,97964.69
2022-10-19T03:55:24.069Z,97964.59
2022-10-19T03:57:54.092Z,97970.13
2022-10-19T04:00:22.077Z,97962.97
2022-10-19T04:02:50.195Z,97966.09
2022-10-19T04:05:18.978Z,97942.69
2022-10-19T04:07:47.004Z,97957.53
2022-10-19T04:10:15.443Z,97948.50
2022-10-19T04:12:45.158Z,97942.59
2022-10-19T04:15:13.157Z,97946.03
2022-10-19T04:17:42.045Z,97934.94
2022-10-19T04:20:11.512Z,97940.44
2022-10-19T04:22:39.816Z,97935.13
2022-10-19T04:25:09.566Z,97934.22
2022-10-19T04:27:37.645Z,97925.97
2022-10-19T04:30:08.268Z,97925.97
2022-10-19T04:32:36.614Z,97931.75
2022-10-19T04:35:04.816Z,97902.09
2022-10-19T04:37:32.962Z,97939.13
2022-10-19T04:40:01.617Z,97934.31
2022-10-19T04:42:30.988Z,97929.59
2022-10-19T04:44:59.020Z,97924.78
2022-10-19T04:47:30.189Z,97917.28
2022-10-19T04:49:58.369Z,97923.38
2022-10-19T04:52:26.931Z,97924.94
2022-10-19T04:54:55.201Z,97920.63
2022-10-19T04:57:23.349Z,97915.50
2022-10-19T04:59:51.571Z,97906.94
2022-10-19T05:02:20.202Z,97912.13
2022-10-19T05:04:51.498Z,97907.50
2022-10-19T05:07:19.615Z,97906.41
2022-10-19T05:09:48.315Z,97903.16
2022-10-19T05:12:16.486Z,97910.47
2022-10-19T05:14:45.103Z,97911.41
2022-10-19T05:17:14.378Z,97897.22
2022-10-19T05:19:42.595Z,97898.50
2022-10-19T05:22:13.483Z,97901.16
2022-10-19T05:24:42.483Z,97899.28
2022-10-19T05:27:11.445Z,97897.22
2022-10-19T05:29:40.496Z,97892.53
2022-10-19T05:32:09.176Z,97898.50
2022-10-19T05:34:37.544Z,97894.75
2022-10-19T05:37:06.141Z,97898.69
2022-10-19T05:39:35.749Z,97895.91
2022-10-19T05:42:03.742Z,97892.16
2022-10-19T05:44:32.407Z,97895.09
2022-10-19T05:47:01.168Z,97897.53
2022-10-19T05:49:29.736Z,97887.63
2022-10-19T05:52:00.820Z,97882.38
2022-10-19T05:54:29.202Z,97877.97
2022-10-19T05:56:59.186Z,97882.69
2022-10-19T05:59:27.613Z,97876.09
2022-10-19T06:01:56.401Z,97876.53
2022-10-19T06:04:24.673Z,97882.31
2022-10-19T06:06:52.857Z,97882.94
2022-10-19T06:09:21.243Z,97894.56
2022-10-19T06:11:49.489Z,97885.41
2022-10-19T06:14:19.300Z,97882.75
2022-10-19T06:16:47.410Z,97881.19
2022-10-19T06:19:15.556Z,97876.75
2022-10-19T06:21:45.902Z,97880.63
2022-10-19T06:24:14.239Z,97876.00
2022-10-19T06:26:42.560Z,97875.47
2022-10-19T06:29:11.944Z,97877.03
2022-10-19T06:31:42.085Z,97877.03
2022-10-19T06:34:10.218Z,97874.19
2022-10-19T06:36:38.793Z,97877.25
2022-10-19T06:39:08.237Z,97879.00
2022-10-19T06:41:36.423Z,97876.19
2022-10-19T06:44:04.464Z,97886.78
2022-10-19T06:46:34.089Z,97874.13
2022-10-19T06:49:04.130Z,97876.84
2022-10-19T06:54:17.603Z,97875.69
2022-10-19T06:56:45.819Z,97872.44
2022-10-19T06:59:14.943Z,97870.88
2022-10-19T07:01:43.218Z,97866.06
2022-10-19T07:04:13.332Z,97869.16
2022-10-19T07:06:41.565Z,97862.00
2022-10-19T07:09:10.152Z,97861.22
2022-10-19T07:11:42.396Z,97861.69
2022-10-19T07:14:14.276Z,97856.72
2022-10-19T07:16:42.746Z,97859.34
2022-10-19T07:19:13.845Z,97853.16
2022-10-19T07:21:44.290Z,97855.63
2022-10-19T07:24:12.363Z,97849.84
2022-10-19T07:26:40.357Z,97853.56
2022-10-19T07:29:08.900Z,97849.66
2022-10-19T07:31:37.173Z,97848.28
2022-10-19T07:34:06.042Z,97853.56
2022-10-19T07:36:37.489Z,97854.97
2022-10-19T07:39:06.866Z,97851.53
2022-10-19T07:41:35.675Z,97849.97
2022-10-19T07:44:04.803Z,97843.69
2022-10-19T07:46:34.227Z,97840.44
2022-10-19T07:49:02.780Z,97846.72
2022-10-19T07:51:31.128Z,97847.19
2022-10-19T07:54:00.988Z,97852.50
2022-10-19T07:56:29.686Z,97854.88
2022-10-19T07:58:58.405Z,97852.41
2022-10-19T08:01:27.713Z,97856.72
2022-10-19T08:04:43.286Z,97842.88
2022-10-19T08:06:45.707Z,97847.09
2022-10-19T08:09:40.107Z,97844.63
2022-10-19T08:12:05.278Z,97859.34
2022-10-19T08:14:33.991Z,97858.47
2022-10-19T08:17:02.153Z,97858.47
2022-10-19T08:19:30.312Z,97860.25
2022-10-19T08:21:58.985Z,97847.69
2022-10-19T08:24:29.840Z,97847.81
2022-10-19T08:26:59.028Z,97850.25
2022-10-19T08:29:30.579Z,97848.41
2022-10-19T08:31:59.794Z,97839.75
2022-10-19T08:34:28.490Z,97841.63
2022-10-19T08:36:57.413Z,97850.25
2022-10-19T08:39:25.852Z,97846.72
2022-10-19T08:42:01.110Z,97842.38
2022-10-19T08:44:36.447Z,97840.53
2022-10-19T08:47:07.722Z,97838.53
2022-10-19T08:49:36.892Z,97839.63
2022-10-19T08:52:07.688Z,97844.03
2022-10-19T08:54:42.593Z,97840.28
2022-10-19T08:57:17.953Z,97840.97
2022-10-19T08:59:51.472Z,97832.44
2022-10-19T09:02:24.677Z,97835.00
2022-10-19T09:04:58.030Z,97842.16
2022-10-19T09:07:28.397Z,97849.69
2022-10-19T09:09:58.471Z,97848.03
2022-10-19T09:12:33.843Z,97848.19
2022-10-19T09:15:04.154Z,97851.34
2022-10-19T09:17:32.977Z,97849.59
2022-10-19T09:20:04.164Z,97851.16
2022-10-19T09:22:34.696Z,97859.06
2022-10-19T09:25:04.670Z,97858.97
2022-10-19T09:27:38.146Z,97861.63
2022-10-19T09:30:07.465Z,97858.88
2022-10-19T09:32:38.117Z,97858.75
2022-10-19T09:35:08.154Z,97858.66
2022-10-19T09:37:42.140Z,97853.69
2022-10-19T09:40:16.580Z,97857.00
2022-10-19T09:42:46.449Z,97856.91
2022-10-19T09:45:18.520Z,97857.38
2022-10-19T09:47:49.463Z,97857.38
2022-10-19T09:50:20.113Z,97857.97
2022-10-19T09:52:49.060Z,97854.91
2022-10-19T09:55:21.622Z,97861.50
2022-10-19T09:57:52.494Z,97856.63
2022-10-19T10:00:21.141Z,97851.00
2022-10-19T10:02:52.903Z,97844.19
2022-10-19T10:05:21.424Z,97845.59
2022-10-19T10:07:50.493Z,97851.84
2022-10-19T10:10:23.726Z,97854.66
2022-10-19T10:12:57.025Z,97857.47
2022-10-19T10:15:27.676Z,97856.44
2022-10-19T10:17:57.482Z,97862.75
2022-10-19T10:20:29.071Z,97863.53
2022-10-19T10:22:59.191Z,97862.47
2022-10-19T10:25:32.416Z,97862.09
2022-10-19T10:28:19.299Z,97856.78
2022-10-19T10:30:48.866Z,97860.38
2022-10-19T10:33:27.058Z,97851.94
2022-10-19T10:36:06.828Z,97847.13
2022-10-19T10:38:37.012Z,97856.59
2022-10-19T10:41:09.319Z,97865.31
2022-10-19T10:46:34.151Z,97869.47
2022-10-19T10:49:04.467Z,97861.81
2022-10-19T10:51:35.156Z,97860.22
2022-10-19T10:54:21.324Z,97860.94
2022-10-19T10:57:06.996Z,97854.31
2022-10-19T10:59:43.065Z,97856.28
2022-10-19T11:02:19.547Z,97852.75
2022-10-19T11:04:52.354Z,97852.19
2022-10-19T11:07:23.999Z,97853.00
2022-10-19T11:09:54.382Z,97852.44
2022-10-19T11:12:34.293Z,97844.28
2022-10-19T11:15:13.540Z,97846.34
2022-10-19T11:17:49.500Z,97851.72
2022-10-19T11:20:18.074Z,97855.63
2022-10-19T11:22:48.377Z,97854.56
2022-10-19T11:25:26.086Z,97856.31
2022-10-19T11:28:00.935Z,97847.28
2022-10-19T11:30:32.324Z,97840.72
2022-10-19T11:33:03.236Z,97834.16
2022-10-19T11:35:38.629Z,97831.78
2022-10-19T11:38:22.702Z,97825.53
2022-10-19T11:41:17.262Z,97821.94
2022-10-19T11:43:56.013Z,97825.91
2022-10-19T11:46:30.528Z,97821.63
2022-10-19T11:49:10.295Z,97834.19
2022-10-19T11:51:41.075Z,97834.38
2022-10-19T11:54:21.748Z,97834.50
2022-10-19T11:57:03.182Z,97839.91
2022-10-19T11:59:43.155Z,97839.91
2022-10-19T12:02:24.076Z,97842.72
2022-10-19T12:04:55.753Z,97844.78
2022-10-19T12:07:50.956Z,97848.69
2022-10-19T12:10:23.410Z,97854.13
2022-10-19T12:12:54.808Z,97852.81
2022-10-19T12:15:28.535Z,97850.94
2022-10-19T12:18:00.720Z,97857.19
2022-10-19T12:20:31.827Z,97865.84
2022-10-19T12:23:00.789Z,97859.84
2022-10-19T12:25:29.476Z,97862.28
2022-10-19T12:27:58.820Z,97861.34
2022-10-19T12:30:27.170Z,97854.47
2022-10-19T12:33:08.190Z,97857.88
2022-10-19T12:35:50.596Z,97854.06
2022-10-19T12:38:21.853Z,97857.13
2022-10-19T12:40:55.420Z,97857.03
2022-10-19T12:43:28.918Z,97856.56
2022-10-19T12:46:04.090Z,97866.19
2022-10-19T12:48:36.602Z,97855.69
2022-10-19T12:51:15.577Z,97857.06
2022-10-19T12:53:47.266Z,97856.06
2022-10-19T12:56:19.021Z,97852.34
2022-10-19T12:58:50.597Z,97856.38
2022-10-19T13:01:20.828Z,97859.31
2022-10-19T13:03:52.921Z,97864.13
2022-10-19T13:06:32.516Z,97871.69
2022-10-19T13:09:02.047Z,97870.31
2022-10-19T13:11:30.621Z,97872.75
2022-10-19T13:14:02.891Z,97876.38
2022-10-19T13:16:35.037Z,97872.97
2022-10-19T13:19:05.427Z,97874.31
2022-10-19T13:21:46.610Z,97879.16
2022-10-19T13:24:28.617Z,97877.34
2022-10-19T13:27:25.468Z,97881.88
2022-10-19T13:29:54.998Z,97883.25
2022-10-19T13:32:34.426Z,97885.59
2022-10-19T13:35:17.666Z,97885.09
2022-10-19T13:37:47.546Z,97894.13
2022-10-19T13:40:24.528Z,97896.78
2022-10-19T13:42:59.778Z,97896.78
2022-10-19T13:45:28.807Z,97893.38
2022-10-19T13:48:00.393Z,97893.84
2022-10-19T13:50:34.447Z,97892.47
2022-10-19T13:53:16.216Z,97887.19
2022-10-19T13:55:51.858Z,97890.59
2022-10-19T13:58:41.961Z,97889.84
2022-10-19T14:01:19.174Z,97883.44
2022-10-19T14:03:58.174Z,97886.09
2022-10-19T14:06:33.261Z,97884.53
2022-10-19T14:09:19.736Z,97891.41
2022-10-19T14:11:51.937Z,97892.47
2022-10-19T14:14:21.259Z,97895.63
2022-10-19T14:16:51.893Z,97888.56
2022-10-19T14:19:27.033Z,97894.31
2022-10-19T14:21:57.030Z,97900.44
2022-10-19T14:24:30.330Z,97899.94
2022-10-19T14:27:05.389Z,97897.28
2022-10-19T14:29:45.056Z,97895.41
2022-10-19T14:32:14.433Z,97903.06
2022-10-19T14:34:42.833Z,97906.50
2022-10-19T14:37:15.065Z,97900.94
2022-10-19T14:39:44.058Z,97909.94
2022-10-19T14:42:14.540Z,97910.72
2022-10-19T14:44:43.462Z,97910.72
2022-10-19T14:47:21.210Z,97911.81
2022-10-19T14:49:50.355Z,97912.59
2022-10-19T14:52:22.923Z,97916.31
2022-10-19T14:54:57.571Z,97912.69
2022-10-19T14:57:30.881Z,97921.13
2022-10-19T15:00:02.288Z,97915.34
2022-10-19T15:02:41.438Z,97914.25
2022-10-19T15:05:19.083Z,97913.47
2022-10-19T15:07:48.275Z,97920.63
2022-10-19T15:10:21.626Z,97919.53
2022-10-19T15:12:57.579Z,97919.53
2022-10-19T15:15:27.828Z,97934.22
2022-10-19T15:17:57.332Z,97931.59
2022-10-19T15:20:27.729Z,97934.22
2022-10-19T15:22:56.571Z,97936.38
2022-10-19T15:25:26.740Z,97944.03
2022-10-19T15:27:58.314Z,97940.09
2022-10-19T15:30:29.023Z,97941.66
2022-10-19T15:33:09.338Z,97946.66
2022-10-19T15:35:38.294Z,97941.38
2022-10-19T15:38:10.274Z,97936.56
2022-10-19T15:40:39.488Z,97946.66
2022-10-19T15:43:40.746Z,97948.69
2022-10-19T15:46:22.560Z,97953.59
2022-10-19T15:48:55.233Z,97955.41
2022-10-19T15:51:35.127Z,97960.91
2022-10-19T15:54:05.169Z,97961.13
2022-10-19T15:56:35.182Z,97965.34
2022-10-19T15:59:05.037Z,97965.03
2022-10-19T16:01:35.434Z,97968.88
2022-10-19T16:04:03.610Z,97971.56
2022-10-19T16:06:32.981Z,97974.59
2022-10-19T16:09:01.254Z,97973.81
2022-10-19T16:11:30.204Z,97974.09
2022-10-19T16:13:58.788Z,97979.47
2022-10-19T16:16:29.764Z,97977.09
2022-10-19T16:19:00.853Z,97966.03
2022-10-19T16:21:31.145Z,97974.97
2022-10-19T16:24:01.684Z,97977.06
2022-10-19T16:26:32.261Z,97973.41
2022-10-19T16:29:01.769Z,97970.25
2022-10-19T16:31:31.758Z,97976.59
2022-10-19T16:34:01.622Z,97979.06
2022-10-19T16:36:29.777Z,97982.75
2022-10-19T16:38:58.037Z,97989.13
2022-10-19T16:41:26.461Z,97989.34
2022-10-19T16:43:58.272Z,97989.56
2022-10-19T16:46:27.265Z,97993.91
2022-10-19T16:48:55.426Z,97996.78
2022-10-19T16:51:36.870Z,97998.69
2022-10-19T16:54:06.536Z,97999.00
2022-10-19T16:56:35.963Z,98002.22
2022-10-19T16:59:05.182Z,98009.03
2022-10-19T17:01:34.254Z,97993.72
2022-10-19T17:04:02.507Z,98000.84
2022-10-19T17:06:31.164Z,98010.22
2022-10-19T17:09:30.163Z,98009.56
2022-10-19T17:11:50.102Z,98002.53
2022-10-19T17:14:18.709Z,98007.13
2022-10-19T17:16:47.133Z,98005.59
2022-10-19T17:19:15.360Z,98009.06
2022-10-19T17:21:43.454Z,98002.53
2022-10-19T17:24:21.007Z,98004.63
2022-10-19T17:26:50.457Z,98005.94
2022-10-19T17:29:18.722Z,98013.88
2022-10-19T17:31:47.343Z,98011.78
2022-10-19T17:34:15.389Z,98013.94
2022-10-19T17:36:45.112Z,98027.16
2022-10-19T17:39:17.983Z,98028.72
2022-10-19T17:41:46.869Z,98015.50
2022-10-19T17:44:15.097Z,98021.00
2022-10-19T17:46:43.163Z,98028.09
2022-10-19T17:49:11.814Z,98029.47
2022-10-19T17:51:40.483Z,98036.28
2022-10-19T17:54:09.866Z,98037.00
2022-10-19T17:56:40.084Z,98029.06
2022-10-19T17:59:09.455Z,98041.22
2022-10-19T18:01:38.627Z,98042.31
2022-10-19T18:04:07.791Z,98046.22
2022-10-19T18:06:36.849Z,98033.31
2022-10-19T18:09:06.313Z,98035.09
2022-10-19T18:11:37.402Z,98049.59
2022-10-19T18:14:09.659Z,98046.44
2022-10-19T18:16:39.260Z,98049.84
2022-10-19T18:19:09.261Z,98050.66
2022-10-19T18:21:39.981Z,98047.72
2022-10-19T18:24:12.711Z,98050.13
2022-10-19T18:26:44.234Z,98052.75
2022-10-19T18:29:16.702Z,98057.78
2022-10-19T18:31:51.896Z,98059.31
2022-10-19T18:34:21.550Z,98061.63
2022-10-19T18:36:50.234Z,98057.41
2022-10-19T18:39:19.043Z,98056.63
2022-10-19T18:41:50.033Z,98060.59
2022-10-19T18:44:26.946Z,98055.81
2022-10-19T18:46:57.235Z,98068.00
2022-10-19T18:49:26.881Z,98060.56
2022-10-19T18:51:56.082Z,98062.75
2022-10-19T18:54:24.738Z,98063.81
2022-10-19T18:56:53.427Z,98064.09
2022-10-19T18:59:24.175Z,98056.16
2022-10-19T19:01:53.819Z,98066.19
2022-10-19T19:04:22.798Z,98061.69
2022-10-19T19:06:51.341Z,98058.03
2022-10-19T19:09:19.759Z,98060.44
2022-10-19T19:11:49.063Z,98053.31
2022-10-19T19:14:18.336Z,98064.63
2022-10-19T19:16:51.992Z,98065.97
2022-10-19T19:19:20.981Z,98061.25
2022-10-19T19:21:50.063Z,98060.22
2022-10-19T19:24:20.210Z,98064.53
2022-10-19T19:26:51.158Z,98061.31
2022-10-19T19:29:20.150Z,98064.22
2022-10-19T19:31:50.285Z,98062.88
2022-10-19T19:34:19.123Z,98070.09
2022-10-19T19:36:48.802Z,98068.25
2022-10-19T19:39:24.494Z,98062.44
2022-10-19T19:41:55.709Z,98070.09
2022-10-19T19:44:25.206Z,98080.63
2022-10-19T19:46:54.821Z,98080.91
2022-10-19T19:49:24.727Z,98088.25
2022-10-19T19:51:53.904Z,98090.41
2022-10-19T19:54:25.427Z,98095.75
2022-10-19T19:56:55.387Z,98101.50
2022-10-19T19:59:24.809Z,98104.66
2022-10-19T20:01:54.969Z,98108.44
2022-10-19T20:04:25.055Z,98117.63
2022-10-19T20:06:53.853Z,98119.97
2022-10-19T20:09:22.382Z,98090.25
2022-10-19T20:11:51.164Z,98130.03
2022-10-19T20:14:20.113Z,98130.03
2022-10-19T20:16:48.684Z,98129.53
2022-10-19T20:19:22.770Z,98135.53
2022-10-19T20:21:51.674Z,98134.75
2022-10-19T20:24:20.129Z,98134.75
2022-10-19T20:26:48.238Z,98141.84
2022-10-19T20:29:16.813Z,98140.28
2022-10-19T20:31:44.789Z,98142.13
2022-10-19T20:34:14.331Z,98153.03
2022-10-19T20:36:44.291Z,98145.50
2022-10-19T20:39:12.904Z,98142.63
2022-10-19T20:41:41.147Z,98146.31
2022-10-19T20:44:10.022Z,98152.88
2022-10-19T20:46:38.100Z,98146.81
2022-10-19T20:49:07.740Z,98150.50
2022-10-19T20:51:37.056Z,98151.56
2022-10-19T20:54:07.923Z,98152.31
2022-10-19T20:56:37.409Z,98153.13
2022-10-19T20:59:08.181Z,98151.56
2022-10-19T21:01:38.383Z,98153.69
2022-10-19T21:04:07.909Z,98143.47
2022-10-19T21:06:41.257Z,98150.91
2022-10-19T21:09:12.143Z,98151.41
2022-10-19T21:11:40.979Z,98152.00
2022-10-19T21:14:12.032Z,98155.13
2022-10-19T21:16:40.292Z,98151.72
2022-10-19T21:19:10.347Z,98155.97
2022-10-19T21:21:39.191Z,98153.31
2022-10-19T21:24:09.136Z,98157.31
2022-10-19T21:26:39.350Z,98154.66
2022-10-19T21:29:10.302Z,98155.94
2022-10-19T21:31:39.546Z,98157.56
2022-10-19T21:34:10.509Z,98158.63
2022-10-19T21:36:39.308Z,98159.69
2022-10-19T21:39:07.592Z,98165.56
2022-10-19T21:41:40.290Z,98158.16
2022-10-19T21:44:11.439Z,98156.59
2022-10-19T21:46:39.949Z,98155.22
2022-10-19T21:49:08.181Z,98161.59
2022-10-19T21:51:38.848Z,98159.47
2022-10-19T21:54:09.087Z,98165.31
2022-10-19T21:56:38.434Z,98171.44
2022-10-19T21:59:08.110Z,98178.81
2022-10-19T22:01:40.205Z,98177.47
2022-10-19T22:04:10.576Z,98175.09
2022-10-19T22:06:38.939Z,98184.56
2022-10-19T22:09:08.494Z,98183.50
2022-10-19T22:11:37.086Z,98181.44
2022-10-19T22:14:05.499Z,98197.63
2022-10-19T22:16:37.156Z,98202.63
2022-10-19T22:19:06.501Z,98202.09
2022-10-19T22:21:35.791Z,98199.75
2022-10-19T22:24:05.089Z,98209.53
2022-10-19T22:26:34.600Z,98206.09
2022-10-19T22:29:03.026Z,98210.56
2022-10-19T22:31:32.021Z,98214.56
2022-10-19T22:34:03.151Z,98215.03
2022-10-19T22:39:30.802Z,98219.00
2022-10-19T22:41:59.555Z,98215.31
2022-10-19T22:44:28.204Z,98218.25
2022-10-19T22:46:57.277Z,98216.94
2022-10-19T22:49:26.852Z,98209.56
2022-10-19T22:52:02.964Z,98213.00
2022-10-19T22:54:31.012Z,98218.31
2022-10-19T22:59:50.291Z,98220.50
2022-10-19T23:02:18.995Z,98221.00
2022-10-19T23:04:48.687Z,98229.47
2022-10-19T23:07:17.063Z,98226.00
2022-10-19T23:09:45.975Z,98230.22
2022-10-19T23:12:14.138Z,98233.94
2022-10-19T23:14:43.114Z,98234.22
2022-10-19T23:17:12.048Z,98246.38
2022-10-19T23:19:40.341Z,98245.34
2022-10-19T23:22:10.619Z,98242.16
2022-10-19T23:24:39.336Z,98239.22
2022-10-19T23:27:08.466Z,98249.53
2022-10-19T23:29:36.855Z,98248.00
2022-10-19T23:32:05.390Z,98245.63
2022-10-19T23:34:36.426Z,98264.63
2022-10-19T23:37:04.857Z,98262.50
2022-10-19T23:39:35.579Z,98261.97
2022-10-19T23:42:05.121Z,98270.19
2022-10-19T23:44:33.688Z,98267.84
2022-10-19T23:47:02.133Z,98270.22
2022-10-19T23:49:31.687Z,98273.44
2022-10-19T23:52:01.803Z,98262.06
2022-10-19T23:54:30.128Z,98271.88
2022-10-19T23:57:01.563Z,98273.97
2022-10-19T23:59:30.089Z,98270.81
